createdAt,value
2022-10-16T00:01:26.495Z,3.20
2022-10-16T00:03:53.471Z,3.15
2022-10-16T00:06:22.086Z,3.42
2022-10-16T00:08:49.606Z,3.60
2022-10-16T00:11:21.262Z,4.03
2022-10-16T00:13:49.367Z,4.10
2022-10-16T00:16:16.807Z,3.97
2022-10-16T00:18:43.837Z,5.00
2022-10-16T00:21:17.154Z,4.22
2022-10-16T00:23:43.966Z,4.40
2022-10-16T00:26:13.809Z,4.28
2022-10-16T00:28:41.186Z,5.53
2022-10-16T00:31:11.184Z,5.20
2022-10-16T00:33:39.772Z,5.43
2022-10-16T00:36:09.123Z,6.33
2022-10-16T00:38:35.891Z,5.45
2022-10-16T00:41:02.700Z,4.63
2022-10-16T00:43:44.674Z,4.80
2022-10-16T00:46:16.572Z,4.38
2022-10-16T00:48:49.365Z,5.37
2022-10-16T00:51:16.283Z,4.40
2022-10-16T00:53:42.933Z,4.38
2022-10-16T00:56:09.814Z,4.25
2022-10-16T00:58:36.499Z,3.80
2022-10-16T01:01:03.405Z,4.37
2022-10-16T01:03:33.466Z,4.82
2022-10-16T01:06:11.424Z,4.80
2022-10-16T01:09:17.421Z,5.40
2022-10-16T01:12:15.862Z,5.47
2022-10-16T01:15:00.267Z,4.40
2022-10-16T01:17:35.931Z,5.22
2022-10-16T01:20:12.055Z,4.55
2022-10-16T01:23:03.906Z,4.78
2022-10-16T01:25:43.037Z,4.70
2022-10-16T01:28:13.184Z,3.90
2022-10-16T01:30:43.008Z,3.42
2022-10-16T01:33:17.731Z,3.60
2022-10-16T01:35:48.194Z,3.28
2022-10-16T01:38:39.818Z,3.67
2022-10-16T01:41:15.505Z,3.27
2022-10-16T01:44:05.917Z,2.95
2022-10-16T01:46:35.066Z,3.33
2022-10-16T01:49:03.757Z,3.80
2022-10-16T01:51:31.065Z,4.85
2022-10-16T01:54:00.921Z,3.90
2022-10-16T01:56:28.493Z,3.03
2022-10-16T01:59:02.244Z,3.20
2022-10-16T02:01:32.568Z,3.17
2022-10-16T02:04:04.526Z,3.03
2022-10-16T02:06:31.415Z,2.73
2022-10-16T02:08:58.776Z,2.80
2022-10-16T02:11:25.612Z,2.40
2022-10-16T02:13:58.666Z,2.83
2022-10-16T02:16:38.612Z,3.60
2022-10-16T02:19:07.124Z,3.63
2022-10-16T02:21:50.076Z,3.50
2022-10-16T02:24:37.596Z,3.67
2022-10-16T02:27:10.324Z,3.10
2022-10-16T02:29:42.164Z,3.70
2022-10-16T02:32:11.783Z,3.70
2022-10-16T02:34:40.893Z,3.70
2022-10-16T02:37:08.236Z,5.10
2022-10-16T02:39:35.798Z,5.07
2022-10-16T02:42:02.717Z,4.30
2022-10-16T02:44:29.545Z,4.03
2022-10-16T02:46:56.339Z,3.20
2022-10-16T02:49:23.241Z,2.78
2022-10-16T02:51:49.912Z,2.97
2022-10-16T02:54:16.724Z,2.88
2022-10-16T02:56:43.403Z,3.30
2022-10-16T02:59:10.275Z,4.10
2022-10-16T03:01:37.253Z,4.88
2022-10-16T03:04:04.360Z,4.00
2022-10-16T03:06:31.085Z,4.03
2022-10-16T03:08:57.925Z,3.60
2022-10-16T03:11:24.768Z,3.38
2022-10-16T03:13:51.593Z,3.25
2022-10-16T03:16:18.302Z,3.55
2022-10-16T03:18:49.576Z,4.00
2022-10-16T03:21:16.630Z,5.60
2022-10-16T03:23:43.600Z,4.70
2022-10-16T03:26:10.247Z,4.10
2022-10-16T03:28:37.164Z,3.60
2022-10-16T03:31:03.904Z,2.97
2022-10-16T03:33:30.745Z,3.10
2022-10-16T03:35:57.413Z,3.03
2022-10-16T03:38:24.405Z,2.45
2022-10-16T03:40:51.057Z,2.85
2022-10-16T03:43:17.906Z,2.70
2022-10-16T03:45:44.606Z,2.37
2022-10-16T03:48:11.494Z,2.90
2022-10-16T03:50:38.165Z,2.22
2022-10-16T03:53:05.261Z,2.40
2022-10-16T03:55:32.057Z,2.50
2022-10-16T03:57:58.900Z,2.90
2022-10-16T04:00:25.579Z,2.58
2022-10-16T04:02:52.460Z,2.20
2022-10-16T04:05:19.293Z,2.50
2022-10-16T04:07:46.127Z,2.75
2022-10-16T04:10:12.816Z,2.27
2022-10-16T04:12:39.696Z,2.47
2022-10-16T04:15:07.217Z,2.90
2022-10-16T04:17:34.183Z,3.65
2022-10-16T04:20:00.890Z,3.75
2022-10-16T04:24:55.044Z,4.22
2022-10-16T04:27:21.880Z,4.03
2022-10-16T04:29:48.573Z,4.10
2022-10-16T04:32:15.397Z,3.78
2022-10-16T04:34:42.385Z,3.63
2022-10-16T04:37:09.204Z,3.42
2022-10-16T04:39:35.901Z,3.00
2022-10-16T04:42:03.687Z,2.92
2022-10-16T04:44:30.487Z,3.60
2022-10-16T04:46:57.387Z,2.90
2022-10-16T04:49:24.123Z,2.83
2022-10-16T04:51:50.964Z,3.85
2022-10-16T04:54:17.690Z,4.60
2022-10-16T04:56:48.019Z,4.65
2022-10-16T04:59:15.755Z,3.90
2022-10-16T05:01:42.981Z,4.10
2022-10-16T05:04:10.073Z,4.60
2022-10-16T05:06:37.493Z,4.13
2022-10-16T05:09:04.337Z,3.40
2022-10-16T05:11:31.434Z,3.50
2022-10-16T05:13:58.178Z,4.07
2022-10-16T05:16:25.142Z,5.10
2022-10-16T05:18:56.314Z,4.95
2022-10-16T05:21:31.252Z,4.70
2022-10-16T05:23:57.967Z,3.60
2022-10-16T05:26:24.935Z,3.33
2022-10-16T05:28:51.699Z,3.10
2022-10-16T05:31:18.694Z,3.50
2022-10-16T05:33:45.961Z,3.58
2022-10-16T05:36:13.908Z,3.27
2022-10-16T05:38:41.092Z,3.40
2022-10-16T05:41:08.025Z,2.95
2022-10-16T05:43:34.669Z,3.10
2022-10-16T05:46:06.371Z,3.13
2022-10-16T05:48:33.374Z,3.37
2022-10-16T05:51:02.249Z,3.55
2022-10-16T05:53:30.801Z,3.33
2022-10-16T05:55:58.592Z,4.35
2022-10-16T05:58:26.979Z,5.70
2022-10-16T06:00:58.549Z,4.83
2022-10-16T06:03:25.419Z,4.85
2022-10-16T06:05:52.687Z,4.22
2022-10-16T06:08:20.547Z,4.25
2022-10-16T06:10:47.986Z,4.10
2022-10-16T06:13:15.322Z,3.83
2022-10-16T06:15:43.485Z,4.47
2022-10-16T06:18:11.005Z,4.38
2022-10-16T06:20:38.846Z,4.10
2022-10-16T06:23:05.596Z,4.00
2022-10-16T06:25:32.913Z,4.40
2022-10-16T06:27:59.633Z,4.03
2022-10-16T06:30:26.488Z,3.90
2022-10-16T06:32:53.200Z,4.07
2022-10-16T06:35:20.109Z,3.80
2022-10-16T06:37:46.868Z,3.33
2022-10-16T06:40:15.653Z,2.90
2022-10-16T06:42:42.802Z,3.33
2022-10-16T06:45:10.146Z,3.58
2022-10-16T06:47:36.833Z,3.17
2022-10-16T06:50:04.799Z,3.30
2022-10-16T06:52:31.767Z,3.50
2022-10-16T06:54:58.601Z,2.70
2022-10-16T06:57:25.284Z,3.30
2022-10-16T06:59:55.327Z,3.63
2022-10-16T07:02:22.290Z,3.03
2022-10-16T07:04:49.192Z,2.90
2022-10-16T07:07:15.828Z,3.40
2022-10-16T07:09:42.755Z,3.88
2022-10-16T07:12:09.690Z,4.00
2022-10-16T07:14:36.756Z,4.10
2022-10-16T07:17:04.041Z,4.10
2022-10-16T07:19:34.271Z,4.18
2022-10-16T07:22:02.220Z,3.47
2022-10-16T07:24:29.162Z,2.90
2022-10-16T07:26:55.834Z,3.37
2022-10-16T07:29:22.962Z,3.40
2022-10-16T07:31:50.360Z,3.42
2022-10-16T07:34:18.816Z,3.40
2022-10-16T07:36:48.190Z,3.25
2022-10-16T07:39:15.237Z,2.97
2022-10-16T07:41:42.392Z,3.10
2022-10-16T07:44:09.682Z,3.13
2022-10-16T07:46:37.006Z,2.65
2022-10-16T07:49:04.466Z,3.22
2022-10-16T07:51:31.227Z,2.70
2022-10-16T07:53:58.109Z,2.30
2022-10-16T07:56:25.241Z,2.30
2022-10-16T07:58:52.977Z,2.50
2022-10-16T08:01:20.333Z,2.17
2022-10-16T08:03:49.865Z,2.27
2022-10-16T08:06:17.445Z,1.98
2022-10-16T08:08:45.140Z,2.47
2022-10-16T08:11:12.025Z,2.30
2022-10-16T08:13:39.046Z,2.33
2022-10-16T08:16:08.827Z,2.10
2022-10-16T08:18:37.012Z,2.42
2022-10-16T08:21:05.404Z,2.50
2022-10-16T08:23:33.616Z,2.50
2022-10-16T08:26:07.376Z,2.50
2022-10-16T08:28:34.920Z,2.00
2022-10-16T08:31:13.599Z,2.40
2022-10-16T08:33:42.837Z,2.65
2022-10-16T08:36:11.823Z,2.40
2022-10-16T08:38:39.440Z,2.60
2022-10-16T08:41:19.381Z,2.33
2022-10-16T08:44:09.182Z,2.22
2022-10-16T08:46:57.751Z,2.20
2022-10-16T08:49:25.694Z,2.03
2022-10-16T08:51:53.168Z,2.13
2022-10-16T08:54:24.338Z,2.10
2022-10-16T08:56:51.010Z,2.30
2022-10-16T08:59:18.596Z,2.30
2022-10-16T09:01:48.375Z,2.50
2022-10-16T09:04:36.929Z,2.67
2022-10-16T09:07:13.801Z,2.90
2022-10-16T09:09:55.823Z,2.30
2022-10-16T09:12:40.438Z,2.42
2022-10-16T09:15:30.557Z,2.72
2022-10-16T09:18:12.058Z,2.40
2022-10-16T09:20:44.816Z,2.20
2022-10-16T09:23:16.440Z,2.38
2022-10-16T09:25:50.382Z,2.65
2022-10-16T09:28:19.623Z,1.85
2022-10-16T09:30:49.589Z,2.20
2022-10-16T09:33:19.521Z,2.17
2022-10-16T09:35:49.802Z,2.10
2022-10-16T09:38:42.868Z,2.00
2022-10-16T09:41:21.997Z,2.30
2022-10-16T09:43:51.396Z,1.70
2022-10-16T09:46:38.726Z,2.10
2022-10-16T09:49:20.308Z,2.55
2022-10-16T09:51:48.341Z,3.75
2022-10-16T09:54:18.489Z,5.55
2022-10-16T09:56:52.754Z,4.07
2022-10-16T09:59:21.890Z,11.43
2022-10-16T10:01:51.948Z,10.00
2022-10-16T10:04:20.606Z,10.85
2022-10-16T10:06:50.058Z,14.70
2022-10-16T10:09:33.921Z,17.25
2022-10-16T10:14:38.481Z,15.50
2022-10-16T10:17:18.329Z,11.00
2022-10-16T10:20:01.602Z,11.35
2022-10-16T10:22:31.514Z,35.38
2022-10-16T10:25:04.312Z,13.17
2022-10-16T10:28:01.977Z,21.10
2022-10-16T10:30:38.569Z,19.25
2022-10-16T10:33:30.207Z,18.27
2022-10-16T10:36:05.599Z,7.50
2022-10-16T10:38:44.937Z,11.43
2022-10-16T10:41:43.977Z,9.05
2022-10-16T10:44:22.173Z,19.00
2022-10-16T10:46:57.096Z,32.50
2022-10-16T10:49:32.949Z,26.67
2022-10-16T10:52:02.306Z,23.47
2022-10-16T10:54:53.018Z,10.30
2022-10-16T10:57:29.688Z,4.00
2022-10-16T11:00:09.016Z,3.50
2022-10-16T11:02:41.580Z,2.80
2022-10-16T11:05:24.244Z,4.90
2022-10-16T11:07:58.732Z,2.88
2022-10-16T11:10:31.756Z,2.45
2022-10-16T11:13:11.832Z,3.35
2022-10-16T11:15:42.256Z,1.90
2022-10-16T11:18:18.037Z,1.37
2022-10-16T11:21:11.281Z,1.80
2022-10-16T11:23:50.046Z,2.00
2022-10-16T11:26:30.043Z,2.80
2022-10-16T11:28:59.469Z,2.20
2022-10-16T11:32:01.995Z,1.80
2022-10-16T11:34:48.992Z,1.55
2022-10-16T11:37:21.651Z,1.92
2022-10-16T11:39:51.633Z,2.20
2022-10-16T11:42:45.645Z,1.70
2022-10-16T11:45:39.880Z,1.97
2022-10-16T11:48:44.049Z,1.80
2022-10-16T11:51:29.580Z,2.05
2022-10-16T11:54:18.024Z,1.60
2022-10-16T11:56:48.892Z,1.60
2022-10-16T11:59:28.949Z,1.73
2022-10-16T12:02:22.053Z,2.10
2022-10-16T12:04:54.549Z,1.50
2022-10-16T12:07:28.179Z,1.20
2022-10-16T12:09:57.209Z,1.30
2022-10-16T12:12:31.422Z,1.30
2022-10-16T12:15:40.552Z,1.30
2022-10-16T12:18:22.896Z,1.45
2022-10-16T12:21:05.362Z,1.67
2022-10-16T12:23:34.513Z,1.65
2022-10-16T12:26:03.455Z,1.50
2022-10-16T12:28:33.012Z,1.60
2022-10-16T12:31:03.609Z,1.60
2022-10-16T12:33:34.386Z,1.60
2022-10-16T12:36:43.032Z,1.48
2022-10-16T12:39:26.361Z,1.23
2022-10-16T12:42:19.348Z,1.52
2022-10-16T12:44:46.176Z,1.27
2022-10-16T12:47:41.365Z,1.20
2022-10-16T12:50:25.985Z,1.10
2022-10-16T12:52:53.012Z,1.30
2022-10-16T12:55:21.840Z,1.00
2022-10-16T12:58:21.330Z,1.10
2022-10-16T13:01:00.739Z,1.50
2022-10-16T13:03:47.357Z,1.08
2022-10-16T13:06:59.438Z,1.40
2022-10-16T13:09:52.468Z,1.50
2022-10-16T13:12:58.001Z,1.10
2022-10-16T13:15:28.359Z,1.52
2022-10-16T13:18:36.812Z,1.50
2022-10-16T13:21:09.957Z,1.20
2022-10-16T13:26:35.087Z,1.65
2022-10-16T13:29:03.060Z,1.38
2022-10-16T13:31:31.947Z,1.42
2022-10-16T13:34:00.861Z,1.60
2022-10-16T13:36:30.792Z,1.63
2022-10-16T13:39:14.038Z,1.20
2022-10-16T13:41:41.732Z,1.27
2022-10-16T13:44:17.212Z,1.35
2022-10-16T13:46:44.230Z,1.23
2022-10-16T13:49:18.847Z,1.10
2022-10-16T13:51:57.387Z,1.20
2022-10-16T13:54:25.378Z,1.23
2022-10-16T13:57:03.454Z,1.20
2022-10-16T13:59:38.570Z,1.20
2022-10-16T14:02:36.010Z,1.08
2022-10-16T14:05:05.105Z,1.40
2022-10-16T14:07:34.256Z,1.20
2022-10-16T14:10:23.726Z,1.10
2022-10-16T14:12:59.538Z,1.10
2022-10-16T14:15:26.776Z,1.20
2022-10-16T14:17:54.581Z,1.20
2022-10-16T14:20:27.238Z,1.20
2022-10-16T14:23:17.725Z,1.20
2022-10-16T14:25:44.528Z,1.00
2022-10-16T14:28:14.386Z,0.98
2022-10-16T14:30:54.664Z,1.27
2022-10-16T14:33:29.943Z,1.10
2022-10-16T14:36:11.929Z,0.90
2022-10-16T14:38:52.650Z,1.00
2022-10-16T14:41:24.837Z,1.10
2022-10-16T14:43:55.840Z,1.10
2022-10-16T14:46:29.417Z,1.05
2022-10-16T14:49:03.106Z,1.10
2022-10-16T14:51:30.511Z,0.90
2022-10-16T14:54:00.114Z,1.35
2022-10-16T14:56:33.246Z,1.20
2022-10-16T14:59:01.845Z,1.15
2022-10-16T15:01:28.541Z,1.20
2022-10-16T15:03:56.187Z,1.20
2022-10-16T15:06:23.219Z,0.90
2022-10-16T15:08:50.352Z,0.80
2022-10-16T15:11:19.784Z,0.95
2022-10-16T15:13:47.149Z,1.10
2022-10-16T15:16:16.795Z,0.90
2022-10-16T15:18:44.737Z,0.98
2022-10-16T15:21:32.563Z,0.80
2022-10-16T15:24:00.844Z,1.05
2022-10-16T15:26:29.163Z,1.00
2022-10-16T15:28:56.441Z,1.07
2022-10-16T15:31:24.259Z,1.10
2022-10-16T15:33:59.151Z,1.08
2022-10-16T15:36:30.659Z,0.90
2022-10-16T15:38:57.978Z,1.00
2022-10-16T15:41:24.819Z,0.80
2022-10-16T15:43:52.029Z,1.00
2022-10-16T15:46:21.504Z,1.05
2022-10-16T15:48:50.262Z,1.02
2022-10-16T15:51:18.086Z,1.10
2022-10-16T15:53:47.320Z,1.10
2022-10-16T15:56:15.393Z,1.02
2022-10-16T15:58:44.047Z,1.10
2022-10-16T16:01:12.006Z,1.35
2022-10-16T16:03:41.525Z,1.10
2022-10-16T16:06:10.906Z,1.07
2022-10-16T16:08:38.138Z,1.10
2022-10-16T16:11:11.460Z,1.20
2022-10-16T16:13:39.403Z,1.10
2022-10-16T16:16:08.485Z,1.10
2022-10-16T16:18:35.667Z,1.30
2022-10-16T16:21:02.870Z,1.33
2022-10-16T16:23:29.817Z,1.50
2022-10-16T16:26:27.034Z,1.58
2022-10-16T16:28:56.682Z,1.42
2022-10-16T16:31:28.406Z,1.40
2022-10-16T16:33:57.781Z,1.30
2022-10-16T16:36:26.222Z,1.40
2022-10-16T16:38:53.504Z,1.50
2022-10-16T16:41:23.336Z,1.50
2022-10-16T16:43:52.296Z,1.60
2022-10-16T16:46:19.684Z,1.70
2022-10-16T16:48:47.020Z,1.40
2022-10-16T16:51:20.757Z,1.30
2022-10-16T16:53:50.482Z,1.10
2022-10-16T16:56:18.194Z,1.30
2022-10-16T16:58:49.457Z,1.45
2022-10-16T17:01:19.794Z,1.55
2022-10-16T17:03:50.629Z,1.58
2022-10-16T17:06:20.799Z,1.75
2022-10-16T17:08:49.222Z,1.73
2022-10-16T17:11:19.149Z,1.67
2022-10-16T17:13:46.386Z,1.70
2022-10-16T17:16:13.446Z,1.30
2022-10-16T17:18:41.160Z,1.70
2022-10-16T17:21:09.719Z,2.37
2022-10-16T17:23:37.789Z,1.90
2022-10-16T17:26:12.531Z,1.90
2022-10-16T17:28:39.917Z,1.90
2022-10-16T17:31:15.777Z,1.92
2022-10-16T17:33:45.105Z,1.80
2022-10-16T17:36:14.638Z,1.90
2022-10-16T17:38:42.787Z,1.80
2022-10-16T17:41:24.207Z,1.85
2022-10-16T17:43:52.201Z,2.20
2022-10-16T17:46:21.410Z,2.13
2022-10-16T17:48:50.534Z,2.90
2022-10-16T17:51:22.440Z,2.88
2022-10-16T17:53:53.890Z,3.17
2022-10-16T17:56:20.681Z,3.85
2022-10-16T17:59:00.164Z,3.80
2022-10-16T18:01:30.088Z,3.30
2022-10-16T18:04:01.802Z,2.70
2022-10-16T18:06:29.917Z,2.90
2022-10-16T18:08:58.760Z,3.47
2022-10-16T18:11:26.797Z,3.67
2022-10-16T18:13:55.983Z,3.45
2022-10-16T18:16:25.009Z,3.90
2022-10-16T18:18:54.044Z,5.55
2022-10-16T18:21:21.524Z,5.88
2022-10-16T18:23:51.078Z,5.83
2022-10-16T18:26:20.739Z,6.50
2022-10-16T18:28:49.032Z,5.05
2022-10-16T18:31:17.367Z,4.07
2022-10-16T18:33:50.242Z,4.30
2022-10-16T18:36:21.083Z,4.90
2022-10-16T18:38:49.807Z,5.45
2022-10-16T18:41:18.176Z,4.40
2022-10-16T18:43:45.058Z,4.32
2022-10-16T18:46:15.822Z,3.90
2022-10-16T18:48:43.329Z,3.60
2022-10-16T18:51:19.595Z,3.08
2022-10-16T18:53:52.905Z,3.03
2022-10-16T18:56:23.516Z,3.20
2022-10-16T18:58:54.078Z,2.88
2022-10-16T19:01:24.567Z,3.30
2022-10-16T19:04:05.130Z,3.30
2022-10-16T19:06:43.044Z,3.22
2022-10-16T19:09:12.248Z,2.65
2022-10-16T19:11:41.778Z,2.50
2022-10-16T19:14:14.411Z,2.70
2022-10-16T19:16:45.687Z,2.58
2022-10-16T19:19:16.123Z,2.67
2022-10-16T19:21:43.545Z,2.55
2022-10-16T19:24:16.627Z,2.63
2022-10-16T19:26:43.818Z,2.83
2022-10-16T19:29:11.640Z,3.10
2022-10-16T19:31:39.433Z,3.63
2022-10-16T19:34:07.670Z,3.17
2022-10-16T19:36:36.433Z,4.63
2022-10-16T19:39:10.452Z,3.67
2022-10-16T19:41:38.162Z,3.85
2022-10-16T19:44:07.875Z,3.97
2022-10-16T19:46:35.708Z,4.53
2022-10-16T19:49:05.597Z,4.65
2022-10-16T19:51:36.211Z,4.97
2022-10-16T19:54:08.743Z,5.68
2022-10-16T19:56:37.428Z,5.70
2022-10-16T19:59:06.179Z,5.25
2022-10-16T20:01:33.344Z,6.10
2022-10-16T20:04:01.327Z,4.93
2022-10-16T20:06:27.999Z,4.45
2022-10-16T20:08:57.589Z,4.22
2022-10-16T20:11:26.565Z,5.50
2022-10-16T20:13:53.399Z,5.55
2022-10-16T20:16:21.019Z,4.17
2022-10-16T20:18:50.060Z,3.50
2022-10-16T20:21:25.749Z,3.50
2022-10-16T20:23:52.801Z,4.38
2022-10-16T20:26:22.174Z,3.38
2022-10-16T20:28:49.176Z,3.50
2022-10-16T20:31:22.649Z,3.20
2022-10-16T20:33:53.836Z,3.70
2022-10-16T20:36:22.385Z,3.65
2022-10-16T20:38:50.044Z,4.63
2022-10-16T20:41:18.310Z,3.73
2022-10-16T20:43:47.927Z,5.20
2022-10-16T20:46:16.989Z,5.40
2022-10-16T20:48:45.146Z,4.13
2022-10-16T20:51:16.036Z,4.20
2022-10-16T20:53:44.044Z,5.00
2022-10-16T20:56:12.680Z,4.75
2022-10-16T20:58:40.863Z,4.15
2022-10-16T21:01:17.071Z,4.07
2022-10-16T21:03:48.890Z,3.35
2022-10-16T21:06:15.545Z,3.67
2022-10-16T21:08:43.493Z,3.58
2022-10-16T21:11:18.909Z,3.30
2022-10-16T21:13:46.225Z,3.70
2022-10-16T21:16:14.501Z,3.85
2022-10-16T21:18:44.710Z,4.30
2022-10-16T21:21:28.619Z,5.57
2022-10-16T21:23:57.381Z,5.30
2022-10-16T21:26:27.435Z,5.18
2022-10-16T21:28:58.023Z,4.80
2022-10-16T21:31:25.295Z,5.07
2022-10-16T21:33:52.994Z,6.25
2022-10-16T21:36:22.189Z,4.70
2022-10-16T21:38:49.462Z,4.60
2022-10-16T21:41:23.623Z,4.20
2022-10-16T21:43:51.154Z,3.77
2022-10-16T21:46:19.757Z,5.18
2022-10-16T21:48:47.232Z,5.10
2022-10-16T21:51:15.072Z,5.32
2022-10-16T21:53:42.363Z,5.45
2022-10-16T21:56:14.584Z,5.90
2022-10-16T21:58:41.847Z,5.82
2022-10-16T22:01:10.763Z,5.38
2022-10-16T22:03:37.984Z,6.00
2022-10-16T22:06:06.683Z,4.93
2022-10-16T22:08:35.270Z,5.20
2022-10-16T22:11:11.230Z,5.05
2022-10-16T22:13:38.432Z,4.20
2022-10-16T22:16:05.346Z,3.58
2022-10-16T22:18:32.690Z,3.00
2022-10-16T22:21:00.065Z,3.10
2022-10-16T22:23:27.410Z,2.60
2022-10-16T22:26:03.103Z,3.08
2022-10-16T22:28:30.135Z,2.88
2022-10-16T22:30:57.057Z,2.75
2022-10-16T22:33:23.933Z,2.87
2022-10-16T22:35:50.673Z,2.90
2022-10-16T22:38:17.572Z,2.53
2022-10-16T22:40:44.301Z,2.78
2022-10-16T22:43:11.268Z,3.08
2022-10-16T22:45:37.985Z,3.20
2022-10-16T22:48:05.355Z,4.00
2022-10-16T22:50:32.627Z,4.50
2022-10-16T22:52:59.578Z,4.13
2022-10-16T22:55:26.244Z,4.30
2022-10-16T22:57:56.652Z,4.77
2022-10-16T23:00:23.937Z,4.40
2022-10-16T23:02:50.844Z,3.45
2022-10-16T23:05:17.608Z,3.75
2022-10-16T23:07:46.441Z,3.10
2022-10-16T23:10:13.159Z,3.17
2022-10-16T23:12:39.964Z,2.60
2022-10-16T23:15:07.365Z,3.30
2022-10-16T23:17:34.372Z,3.35
2022-10-16T23:20:01.047Z,2.67
2022-10-16T23:22:28.289Z,3.00
2022-10-16T23:24:55.121Z,3.08
2022-10-16T23:27:22.073Z,2.70
2022-10-16T23:29:49.587Z,2.60
2022-10-16T23:32:16.507Z,2.17
2022-10-16T23:34:43.173Z,2.40
2022-10-16T23:37:10.052Z,2.95
2022-10-16T23:39:36.978Z,2.97
2022-10-16T23:42:03.946Z,3.50
2022-10-16T23:44:30.616Z,4.30
2022-10-16T23:46:57.457Z,4.53
2022-10-16T23:49:24.170Z,4.97
2022-10-16T23:51:51.038Z,4.03
2022-10-16T23:54:17.741Z,5.05
2022-10-16T23:56:44.685Z,4.55
2022-10-16T23:59:11.434Z,4.80
